Time;durP1;ratioP1;P1;durP2;ratioP2;P2;SDS_P1;SDS_P2;PMS_P1;PMS_P2;Temp;Humidity;BMP_temperature;BMP_pressure;BME280_temperature;BME280_humidity;BME280_pressure;Samples;Min_cycle;Max_cycle;Signal;HPM_P1;HPM_P2
2023/02/27 00:00:13;;;;;;;1.97;1.30;;;;;;;-4.73;100.00;101951.56;5043957;28;20044;-77
2023/02/27 00:02:42;;;;;;;1.73;1.20;;;;;;;-4.78;100.00;101948.72;5057600;28;20405;-77
2023/02/27 00:05:10;;;;;;;1.80;1.00;;;;;;;-4.82;100.00;101954.47;5029501;28;20389;-77
2023/02/27 00:07:36;;;;;;;2.40;1.10;;;;;;;-4.83;100.00;101955.28;5067567;28;20040;-77
2023/02/27 00:10:04;;;;;;;2.23;1.20;;;;;;;-4.85;100.00;101946.56;5073739;28;20135;-77
2023/02/27 00:12:36;;;;;;;2.90;1.17;;;;;;;-4.92;100.00;101944.41;5071488;28;20085;-78
2023/02/27 00:15:04;;;;;;;3.20;1.47;;;;;;;-4.96;100.00;101953.63;5051656;28;20036;-78
2023/02/27 00:17:31;;;;;;;1.80;1.30;;;;;;;-4.95;100.00;101951.94;5081723;28;20389;-78
2023/02/27 00:19:58;;;;;;;2.83;1.30;;;;;;;-4.94;100.00;101957.19;5071462;28;20417;-77
2023/02/27 00:22:25;;;;;;;2.10;1.30;;;;;;;-5.00;100.00;101955.91;5057182;28;20073;-79
2023/02/27 00:24:52;;;;;;;2.43;1.20;;;;;;;-4.99;100.00;101957.69;5055674;28;20045;-77
2023/02/27 00:27:19;;;;;;;1.73;1.13;;;;;;;-5.05;100.00;101954.72;5057278;28;20048;-78
2023/02/27 00:29:47;;;;;;;1.80;1.27;;;;;;;-5.00;100.00;101950.75;5049786;28;20029;-77
2023/02/27 00:32:19;;;;;;;1.60;1.20;;;;;;;-5.03;100.00;101955.72;5077520;28;20067;-77
2023/02/27 00:34:45;;;;;;;1.83;1.17;;;;;;;-5.02;100.00;101955.81;5054112;28;20035;-78
2023/02/27 00:37:12;;;;;;;2.10;1.40;;;;;;;-5.07;100.00;101949.47;5052430;28;20045;-77
2023/02/27 00:39:39;;;;;;;3.63;1.50;;;;;;;-5.04;100.00;101953.91;5055696;28;20040;-78
2023/02/27 00:42:05;;;;;;;2.97;1.20;;;;;;;-5.03;100.00;101955.72;5053495;28;20135;-78
2023/02/27 00:44:32;;;;;;;1.97;1.27;;;;;;;-5.10;100.00;101949.28;5054378;28;20585;-77
2023/02/27 00:46:59;;;;;;;2.97;1.57;;;;;;;-5.01;100.00;101954.13;5079729;28;20040;-79
2023/02/27 00:49:25;;;;;;;1.83;1.20;;;;;;;-5.11;100.00;101952.66;5039050;28;20070;-78
2023/02/27 00:51:52;;;;;;;3.57;1.47;;;;;;;-5.17;100.00;101937.69;5091184;28;20040;-78
2023/02/27 00:54:19;;;;;;;2.27;1.33;;;;;;;-5.19;100.00;101941.88;5055423;28;20036;-78
2023/02/27 00:56:46;;;;;;;4.47;1.40;;;;;;;-5.06;100.00;101948.69;5067216;28;20036;-77
2023/02/27 00:59:12;;;;;;;2.53;1.60;;;;;;;-5.10;100.00;101942.44;5036700;28;20490;-77
2023/02/27 01:01:40;;;;;;;2.17;1.27;;;;;;;-5.11;100.00;101935.53;5054110;28;20040;-77
2023/02/27 01:04:07;;;;;;;3.57;1.33;;;;;;;-5.13;100.00;101929.38;5040773;28;20497;-77
2023/02/27 01:06:33;;;;;;;2.17;1.67;;;;;;;-5.10;100.00;101942.44;5055671;28;20459;-78
2023/02/27 01:09:00;;;;;;;2.37;1.50;;;;;;;-5.24;100.00;101937.22;5039902;28;20074;-78
2023/02/27 01:11:30;;;;;;;3.77;1.30;;;;;;;-5.10;100.00;101927.00;5056356;28;20040;-77
2023/02/27 01:13:56;;;;;;;2.10;1.30;;;;;;;-4.99;100.00;101925.06;5070412;28;20038;-78
2023/02/27 01:16:23;;;;;;;2.33;1.30;;;;;;;-5.19;100.00;101931.56;5054079;28;20066;-77
2023/02/27 01:18:52;;;;;;;2.77;1.50;;;;;;;-5.17;100.00;101931.66;5071566;28;20382;-78
2023/02/27 01:21:20;;;;;;;3.27;1.50;;;;;;;-5.14;100.00;101927.56;5055973;28;20550;-77
2023/02/27 01:23:47;;;;;;;2.40;1.50;;;;;;;-5.07;100.00;101930.53;5056240;28;20043;-77
2023/02/27 01:26:14;;;;;;;2.47;1.37;;;;;;;-5.01;100.00;101928.38;5067263;28;20504;-80
2023/02/27 01:28:41;;;;;;;3.20;1.60;;;;;;;-5.12;100.00;101922.53;5030370;28;20032;-79
2023/02/27 01:31:08;;;;;;;2.93;1.30;;;;;;;-5.01;100.00;101923.22;5032485;28;20044;-80
2023/02/27 01:33:35;;;;;;;2.57;1.60;;;;;;;-5.06;100.00;101917.75;5051081;28;20037;-79
2023/02/27 01:36:02;;;;;;;4.00;1.63;;;;;;;-4.93;100.00;101912.59;5045144;28;20040;-79
2023/02/27 01:38:28;;;;;;;3.37;1.43;;;;;;;-5.01;100.00;101918.06;5033926;28;20374;-80
2023/02/27 01:40:59;;;;;;;3.57;1.73;;;;;;;-5.10;100.00;101916.69;5041567;28;20044;-79
2023/02/27 01:43:26;;;;;;;3.03;1.30;;;;;;;-5.12;100.00;101913.13;5035194;28;20101;-80
2023/02/27 01:45:53;;;;;;;5.27;2.40;;;;;;;-5.20;100.00;101918.59;5050684;28;20037;-79
2023/02/27 01:48:30;;;;;;;3.70;1.67;;;;;;;-5.20;100.00;101921.19;5042584;28;20063;-80
2023/02/27 01:51:00;;;;;;;2.73;1.43;;;;;;;-5.12;100.00;101913.13;5045923;28;20383;-81
2023/02/27 01:53:30;;;;;;;2.60;1.40;;;;;;;-5.14;100.00;101916.38;5045429;28;20040;-80
2023/02/27 01:56:01;;;;;;;3.70;1.70;;;;;;;-5.01;100.00;101923.22;5037858;28;20060;-80
2023/02/27 01:58:28;;;;;;;1.93;1.30;;;;;;;-5.12;100.00;101919.97;5052965;28;20055;-79
2023/02/27 02:00:56;;;;;;;2.70;1.50;;;;;;;-5.00;100.00;101928.44;5038774;28;20370;-80
2023/02/27 02:03:36;;;;;;;2.40;1.30;;;;;;;-5.07;100.00;101935.69;5045866;28;20041;-80
2023/02/27 02:06:04;;;;;;;3.07;1.63;;;;;;;-5.08;100.00;101933.94;5035859;28;20067;-80
2023/02/27 02:08:36;;;;;;;4.97;1.83;;;;;;;-5.05;100.00;101939.25;5052003;28;20040;-80
2023/02/27 02:11:04;;;;;;;2.30;1.50;;;;;;;-5.05;100.00;101936.69;5042602;28;20032;-79
2023/02/27 02:13:32;;;;;;;3.00;1.60;;;;;;;-4.97;100.00;101935.47;5051762;28;20497;-80
2023/02/27 02:16:14;;;;;;;2.53;1.50;;;;;;;-5.00;100.00;101937.88;5058607;28;20509;-81
2023/02/27 02:18:47;;;;;;;2.17;1.27;;;;;;;-5.14;100.00;101940.47;5052384;28;20101;-81
2023/02/27 02:21:39;;;;;;;3.10;2.07;;;;;;;-5.17;100.00;101937.69;5040676;28;20043;-80
2023/02/27 02:24:49;;;;;;;2.83;1.50;;;;;;;-5.28;100.00;101942.97;5070382;28;20045;-80
2023/02/27 02:27:41;;;;;;;4.57;1.50;;;;;;;-5.35;100.00;101941.69;5056874;28;20412;-81
2023/02/27 02:30:22;;;;;;;2.13;1.60;;;;;;;-5.36;100.00;101945.06;5059255;28;20543;-80
2023/02/27 02:33:04;;;;;;;1.53;1.07;;;;;;;-5.41;100.00;101936.13;5071865;28;20040;-80
2023/02/27 02:35:56;;;;;;;2.03;1.00;;;;;;;-5.41;100.00;101942.19;5048422;28;20115;-79
2023/02/27 02:38:44;;;;;;;2.80;1.33;;;;;;;-5.37;100.00;101943.28;5058148;28;20032;-80
2023/02/27 02:41:32;;;;;;;2.47;1.37;;;;;;;-5.40;100.00;101943.06;5053633;28;20036;-78
2023/02/27 02:44:01;;;;;;;2.30;1.27;;;;;;;-5.38;100.00;101946.66;5070280;28;20404;-81
2023/02/27 02:47:05;;;;;;;3.30;1.50;;;;;;;-5.52;100.00;101950.03;5056356;28;20106;-80
2023/02/27 02:49:43;;;;;;;3.47;1.83;;;;;;;-5.49;100.00;101945.94;5024501;28;20044;-80
2023/02/27 02:52:26;;;;;;;3.10;1.43;;;;;;;-5.47;100.00;101946.94;5058552;28;20063;-80
2023/02/27 02:55:04;;;;;;;2.60;1.40;;;;;;;-5.44;100.00;101959.13;5038530;28;20054;-81
2023/02/27 02:57:42;;;;;;;1.80;1.20;;;;;;;-5.43;100.00;101953.19;5069969;28;20054;-81
2023/02/27 03:00:16;;;;;;;2.67;1.20;;;;;;;-5.52;100.00;101958.63;5067166;28;20040;-81
2023/02/27 03:02:47;;;;;;;3.28;1.42;;;;;;;-5.55;100.00;101957.53;5052432;28;20098;-81
2023/02/27 03:05:18;;;;;;;2.20;1.10;;;;;;;-5.63;100.00;101959.63;5059082;28;20048;-81
2023/02/27 03:07:55;;;;;;;1.43;1.10;;;;;;;-5.64;100.00;101962.06;5059661;28;20052;-79
2023/02/27 03:10:30;;;;;;;2.67;1.57;;;;;;;-5.68;100.00;101961.88;5060431;28;20047;-81
2023/02/27 03:13:17;;;;;;;3.83;1.50;;;;;;;-5.70;100.00;101968.63;5055595;28;20044;-82
2023/02/27 03:15:51;;;;;;;1.73;1.20;;;;;;;-5.69;100.00;101965.25;5057897;28;20118;-79
2023/02/27 03:18:23;;;;;;;4.40;1.37;;;;;;;-5.67;100.00;101973.97;5042043;28;20048;-80
2023/02/27 03:20:59;;;;;;;1.97;1.10;;;;;;;-5.65;100.00;101971.47;5039089;28;20113;-82
2023/02/27 03:23:36;;;;;;;2.87;1.30;;;;;;;-5.68;100.00;101977.34;5037497;28;20044;-81
2023/02/27 03:26:03;;;;;;;1.73;1.40;;;;;;;-5.71;100.00;101987.44;5033065;28;20094;-81
2023/02/27 03:28:34;;;;;;;2.00;1.40;;;;;;;-5.86;100.00;101972.66;5054967;28;20451;-80
2023/02/27 03:31:20;;;;;;;2.13;1.27;;;;;;;-5.90;100.00;101978.41;5053691;28;20074;-80
2023/02/27 03:33:58;;;;;;;1.83;1.13;;;;;;;-5.85;100.00;101982.16;5046206;28;20040;-80
2023/02/27 03:36:46;;;;;;;2.40;1.00;;;;;;;-5.91;100.00;101981.78;5036236;28;20524;-80
2023/02/27 03:39:44;;;;;;;1.97;1.30;;;;;;;-5.94;100.00;101985.03;5037513;28;20044;-80
2023/02/27 03:42:36;;;;;;;3.80;1.53;;;;;;;-5.93;100.00;101989.41;5049921;28;20048;-78
2023/02/27 03:45:06;;;;;;;3.93;1.60;;;;;;;-5.92;100.00;101998.91;5064775;28;20035;-79
2023/02/27 03:47:33;;;;;;;1.90;1.10;;;;;;;-5.99;100.00;101992.44;5086219;28;20290;-78
2023/02/27 03:50:00;;;;;;;3.57;1.20;;;;;;;-6.05;100.00;101999.78;5045327;28;20494;-80
2023/02/27 03:52:28;;;;;;;2.37;1.30;;;;;;;-6.07;100.00;102005.59;5058663;28;21306;-80
2023/02/27 03:55:09;;;;;;;2.27;1.60;;;;;;;-6.05;100.00;101999.78;5042134;28;20682;-78
2023/02/27 03:57:36;;;;;;;1.77;1.20;;;;;;;-6.12;100.00;102006.97;5037478;28;20330;-79
2023/02/27 04:00:05;;;;;;;2.27;1.37;;;;;;;-6.17;100.00;102000.59;5043161;28;20041;-78
2023/02/27 04:02:32;;;;;;;2.40;1.27;;;;;;;-6.12;100.00;102012.13;5056721;28;20786;-80
2023/02/27 04:04:59;;;;;;;1.37;1.10;;;;;;;-6.13;100.00;102011.22;5057509;28;20297;-80
2023/02/27 04:07:33;;;;;;;2.43;1.50;;;;;;;-6.15;100.00;102017.03;5051216;28;20076;-79
2023/02/27 04:10:20;;;;;;;4.00;1.43;;;;;;;-6.24;100.00;102018.19;5053509;28;20036;-79
2023/02/27 04:12:52;;;;;;;1.73;1.20;;;;;;;-6.21;100.00;102021.78;5054921;28;20366;-81
2023/02/27 04:15:46;;;;;;;1.40;1.30;;;;;;;-6.26;100.00;102026.59;5032862;28;20305;-79
2023/02/27 04:18:17;;;;;;;1.45;1.13;;;;;;;-6.20;100.00;102016.72;5084913;28;20368;-80
2023/02/27 04:20:49;;;;;;;1.93;1.20;;;;;;;-6.27;100.00;102017.97;5056682;28;20040;-80
2023/02/27 04:23:26;;;;;;;2.13;1.23;;;;;;;-6.31;100.00;102028.81;5043168;28;20283;-81
2023/02/27 04:26:24;;;;;;;2.60;1.33;;;;;;;-6.28;100.00;102029.06;5039968;28;20047;-81
2023/02/27 04:29:05;;;;;;;1.73;1.00;;;;;;;-6.26;100.00;102030.06;5071201;28;20333;-81
2023/02/27 04:31:31;;;;;;;1.47;1.10;;;;;;;-6.26;100.00;102029.16;5055957;28;20035;-80
2023/02/27 04:34:09;;;;;;;2.27;1.00;;;;;;;-6.29;100.00;102029.84;5060298;28;20044;-79
2023/02/27 04:36:43;;;;;;;4.13;1.30;;;;;;;-6.28;100.00;102028.16;5072438;28;20314;-80
2023/02/27 04:39:23;;;;;;;3.27;1.40;;;;;;;-6.30;100.00;102024.59;5057456;28;20297;-80
2023/02/27 04:41:56;;;;;;;3.37;1.27;;;;;;;-6.30;100.00;102029.75;5045167;28;20278;-80
2023/02/27 04:44:24;;;;;;;3.13;1.27;;;;;;;-6.32;100.00;102024.47;5054794;28;20048;-80
2023/02/27 04:46:51;;;;;;;4.37;1.70;;;;;;;-6.34;100.00;102031.19;5066232;28;20530;-78
2023/02/27 04:49:32;;;;;;;1.93;1.40;;;;;;;-6.34;100.00;102031.19;5071368;28;20469;-81
2023/02/27 04:52:06;;;;;;;2.73;1.20;;;;;;;-6.38;100.00;102030.91;5045585;28;20098;-78
2023/02/27 04:55:04;;;;;;;1.98;1.23;;;;;;;-6.39;100.00;102029.09;5063173;28;21149;-81
2023/02/27 04:57:40;;;;;;;2.63;1.33;;;;;;;-6.38;100.00;102024.06;5036044;28;20094;-77
2023/02/27 05:00:10;;;;;;;2.20;1.33;;;;;;;-6.43;100.00;102030.56;5037164;28;20286;-80
2023/02/27 05:02:41;;;;;;;2.13;1.27;;;;;;;-6.48;100.00;102021.63;5047105;28;20308;-78
2023/02/27 05:05:12;;;;;;;3.63;1.30;;;;;;;-6.50;100.00;102023.22;5072323;28;20391;-80
2023/02/27 05:07:46;;;;;;;3.30;1.47;;;;;;;-6.56;100.00;102027.91;5037634;28;20384;-77
2023/02/27 05:10:20;;;;;;;2.33;1.23;;;;;;;-6.52;100.00;102029.94;5050867;28;20294;-79
2023/02/27 05:12:51;;;;;;;2.03;1.17;;;;;;;-6.49;100.00;102031.81;5052752;28;20051;-78
2023/02/27 05:15:31;;;;;;;1.77;1.33;;;;;;;-6.53;100.00;102038.44;5040064;28;20305;-80
2023/02/27 05:18:01;;;;;;;1.80;1.20;;;;;;;-6.60;100.00;102039.66;5054135;28;20347;-80
2023/02/27 05:21:07;;;;;;;2.17;1.10;;;;;;;-6.55;100.00;102040.91;5052016;28;20703;-80
2023/02/27 05:23:47;;;;;;;1.97;0.90;;;;;;;-6.55;100.00;102040.00;5064814;28;20302;-82
2023/02/27 05:26:22;;;;;;;4.10;1.30;;;;;;;-6.57;100.00;102050.16;5038304;28;20308;-81
2023/02/27 05:29:04;;;;;;;3.03;1.30;;;;;;;-6.59;100.00;102045.69;5052657;28;20291;-81
2023/02/27 05:31:36;;;;;;;2.33;1.20;;;;;;;-6.67;100.00;102042.59;5051922;28;20829;-81
2023/02/27 05:34:13;;;;;;;3.80;1.20;;;;;;;-6.76;100.00;102056.47;5063704;28;20290;-80
2023/02/27 05:36:56;;;;;;;3.10;1.50;;;;;;;-6.75;100.00;102060.81;5056005;28;20671;-81
2023/02/27 05:39:25;;;;;;;2.40;1.37;;;;;;;-6.63;100.00;102056.56;5055040;28;20356;-78
2023/02/27 05:41:59;;;;;;;1.10;1.00;;;;;;;-6.66;100.00;102051.19;5057108;28;20603;-78
2023/02/27 05:44:42;;;;;;;1.88;1.30;;;;;;;-6.72;100.00;102058.50;5075765;28;20323;-80
2023/02/27 05:47:12;;;;;;;1.73;1.23;;;;;;;-6.73;100.00;102069.53;5044636;28;20075;-78
2023/02/27 05:49:42;;;;;;;1.53;0.90;;;;;;;-6.65;100.00;102089.84;5085766;28;20301;-79
2023/02/27 05:52:11;;;;;;;2.27;1.27;;;;;;;-6.48;100.00;102082.44;5035194;28;20355;-78
2023/02/27 05:54:47;;;;;;;2.87;1.40;;;;;;;-6.53;100.00;102089.84;5051193;28;20305;-78
2023/02/27 05:57:18;;;;;;;2.20;1.30;;;;;;;-6.49;100.00;102088.38;5033873;28;20313;-77
2023/02/27 05:59:51;;;;;;;2.80;1.43;;;;;;;-6.43;100.00;102084.56;5045566;28;20397;-79
2023/02/27 06:02:18;;;;;;;3.63;1.23;;;;;;;-6.42;100.00;102072.59;5054938;28;20040;-77
2023/02/27 06:04:45;;;;;;;2.27;1.30;;;;;;;-6.37;100.00;102077.28;5030399;28;20294;-79
2023/02/27 06:07:14;;;;;;;1.93;1.20;;;;;;;-6.05;100.00;102091.50;5046604;28;20644;-78
2023/02/27 06:09:42;;;;;;;2.27;1.43;;;;;;;-5.99;100.00;102099.63;5075002;28;20297;-79
2023/02/27 06:12:09;;;;;;;2.30;1.20;;;;;;;-5.94;100.00;102113.69;5056806;28;20289;-78
2023/02/27 06:14:36;;;;;;;1.80;1.17;;;;;;;-5.84;100.00;102115.19;5071990;28;20074;-78
2023/02/27 06:17:02;;;;;;;3.53;1.63;;;;;;;-5.82;100.00;102124.78;5049807;28;20078;-77
2023/02/27 06:19:29;;;;;;;2.60;1.23;;;;;;;-5.77;100.00;102126.00;5071580;28;20090;-79
2023/02/27 06:21:55;;;;;;;2.10;1.40;;;;;;;-5.56;100.00;102131.72;5038342;28;20044;-77
2023/02/27 06:24:22;;;;;;;1.30;1.20;;;;;;;-5.69;100.00;102121.41;5054314;28;20352;-78
2023/02/27 06:26:49;;;;;;;2.70;1.50;;;;;;;-5.69;100.00;102123.97;5050720;28;20294;-79
2023/02/27 06:29:16;;;;;;;3.90;1.60;;;;;;;-5.67;100.00;102124.97;5067520;28;20602;-78
2023/02/27 06:31:42;;;;;;;3.60;1.60;;;;;;;-5.48;100.00;102127.09;5071666;28;20048;-77
2023/02/27 06:34:09;;;;;;;1.67;1.23;;;;;;;-5.34;100.00;102125.44;5038074;28;20046;-78
2023/02/27 06:36:36;;;;;;;1.97;1.20;;;;;;;-5.40;100.00;102136.22;5054050;28;20044;-78
2023/02/27 06:39:03;;;;;;;3.33;1.40;;;;;;;-5.39;100.00;102131.16;5069791;28;20071;-78
2023/02/27 06:41:30;;;;;;;1.77;1.20;;;;;;;-5.21;100.00;102138.38;5073768;28;20398;-78
2023/02/27 06:43:56;;;;;;;4.07;1.40;;;;;;;-5.18;100.00;102131.72;5046638;28;20067;-78
2023/02/27 06:46:24;;;;;;;1.70;1.20;;;;;;;-5.16;100.00;102134.41;5064380;28;20043;-77
2023/02/27 06:48:50;;;;;;;2.47;1.70;;;;;;;-5.11;100.00;102133.91;5066139;28;20481;-78
2023/02/27 06:51:17;;;;;;;3.10;1.20;;;;;;;-4.99;100.00;102140.66;5059858;28;20393;-78
2023/02/27 06:53:44;;;;;;;4.10;2.10;;;;;;;-4.93;100.00;102146.22;5052223;28;20457;-78
2023/02/27 06:56:10;;;;;;;2.57;1.50;;;;;;;-4.92;100.00;102146.31;5046698;28;20049;-78
2023/02/27 06:58:37;;;;;;;3.93;1.33;;;;;;;-4.82;100.00;102145.22;5067137;28;20059;-77
2023/02/27 07:01:04;;;;;;;2.53;1.63;;;;;;;-4.82;100.00;102151.28;5060282;28;20024;-77
2023/02/27 07:03:30;;;;;;;4.63;1.80;;;;;;;-4.72;100.00;102152.75;5045390;28;20469;-78
2023/02/27 07:05:58;;;;;;;3.63;1.97;;;;;;;-4.64;100.00;102155.84;5061513;28;20039;-77
2023/02/27 07:08:24;;;;;;;5.03;2.40;;;;;;;-4.57;100.00;102155.44;5047860;28;20528;-79
2023/02/27 07:10:51;;;;;;;6.00;2.60;;;;;;;-4.48;100.00;102155.16;5027742;28;20048;-78
2023/02/27 07:13:18;;;;;;;5.57;2.77;;;;;;;-4.45;100.00;102160.53;5065573;28;20504;-77
2023/02/27 07:15:45;;;;;;;6.67;2.37;;;;;;;-4.41;100.00;102160.78;5073007;28;20406;-78
2023/02/27 07:18:12;;;;;;;5.07;2.60;;;;;;;-4.32;100.00;102168.22;5065848;28;20051;-78
2023/02/27 07:20:39;;;;;;;8.53;3.73;;;;;;;-4.21;100.00;102162.03;5035727;28;20692;-78
2023/02/27 07:23:06;;;;;;;10.73;5.57;;;;;;;-4.12;100.00;102159.16;5042675;28;21473;-78
2023/02/27 07:25:33;;;;;;;38.57;20.67;;;;;;;-4.07;100.00;102161.22;5069339;28;20678;-78
2023/02/27 07:27:59;;;;;;;31.87;14.10;;;;;;;-3.98;100.00;102161.81;5055001;28;20041;-78
2023/02/27 07:30:26;;;;;;;18.70;9.83;;;;;;;-3.94;100.00;102165.50;5046911;28;20060;-79
2023/02/27 07:32:52;;;;;;;14.97;9.53;;;;;;;-3.82;100.00;102167.91;5071752;28;20067;-79
2023/02/27 07:35:19;;;;;;;22.70;15.73;;;;;;;-3.71;100.00;102174.63;5037636;28;20041;-79
2023/02/27 07:37:46;;;;;;;17.53;14.33;;;;;;;-3.58;100.00;102172.00;5039833;28;20043;-79
2023/02/27 07:40:13;;;;;;;11.60;9.00;;;;;;;-3.42;100.00;102166.97;5057666;28;20044;-80
2023/02/27 07:42:40;;;;;;;6.77;3.60;;;;;;;-3.29;100.00;102178.91;5058092;28;20028;-77
2023/02/27 07:45:07;;;;;;;3.10;2.53;;;;;;;-3.19;100.00;102177.78;5058596;28;20040;-77
2023/02/27 07:47:34;;;;;;;5.97;3.67;;;;;;;-3.10;100.00;102167.09;5073477;28;20070;-77
2023/02/27 07:50:01;;;;;;;9.70;4.47;;;;;;;-3.00;100.00;102175.47;5087993;28;20047;-77
2023/02/27 07:52:30;;;;;;;6.73;4.40;;;;;;;-2.94;100.00;102182.72;5062441;28;20063;-78
2023/02/27 07:54:57;;;;;;;5.87;2.77;;;;;;;-2.68;100.00;102176.44;5059654;28;20044;-77
2023/02/27 07:57:24;;;;;;;7.03;2.87;;;;;;;-2.63;100.00;102180.19;5057935;28;20105;-77
2023/02/27 07:59:51;;;;;;;4.67;2.40;;;;;;;-2.59;100.00;102179.56;5061261;28;20059;-78
2023/02/27 08:02:17;;;;;;;4.50;2.63;;;;;;;-2.51;100.00;102180.88;5074206;28;20036;-77
2023/02/27 08:04:44;;;;;;;8.33;4.03;;;;;;;-2.39;100.00;102176.38;5049774;28;20044;-78
2023/02/27 08:07:11;;;;;;;6.47;4.47;;;;;;;-2.32;100.00;102178.53;5057818;28;20067;-77
2023/02/27 08:09:37;;;;;;;7.17;3.70;;;;;;;-2.20;100.00;102183.47;5031226;28;20103;-78
2023/02/27 08:12:04;;;;;;;6.20;4.33;;;;;;;-2.15;100.00;102176.88;5075196;28;20063;-78
2023/02/27 08:14:31;;;;;;;6.37;4.20;;;;;;;-2.06;100.00;102177.38;5058195;28;20047;-78
2023/02/27 08:16:59;;;;;;;6.83;4.07;;;;;;;-2.00;100.00;102176.81;5073051;28;20424;-78
2023/02/27 08:19:26;;;;;;;5.33;3.77;;;;;;;-1.95;100.00;102179.66;5123398;23;20036;-80
2023/02/27 08:21:52;;;;;;;7.40;3.57;;;;;;;-1.88;100.00;102184.34;5039080;28;20047;-79
2023/02/27 08:24:19;;;;;;;7.50;3.83;;;;;;;-1.83;100.00;102183.81;5031401;28;20044;-81
2023/02/27 08:26:46;;;;;;;6.03;3.53;;;;;;;-1.75;100.00;102200.66;5042280;28;20046;-80
2023/02/27 08:29:13;;;;;;;5.97;3.50;;;;;;;-1.80;100.00;102194.31;5041481;28;20036;-81
2023/02/27 08:31:42;;;;;;;5.37;3.93;;;;;;;-1.77;100.00;102191.88;5057867;28;20063;-80
2023/02/27 08:34:09;;;;;;;5.23;3.63;;;;;;;-1.71;100.00;102191.34;5058725;28;20040;-81
2023/02/27 08:36:36;;;;;;;5.97;3.70;;;;;;;-1.60;100.00;102189.31;5040591;28;20107;-80
2023/02/27 08:39:04;;;;;;;5.60;3.70;;;;;;;-1.52;100.00;102185.41;5058860;28;20038;-82
2023/02/27 08:41:31;;;;;;;4.93;3.50;;;;;;;-1.44;100.00;102181.53;5036912;28;20055;-79
2023/02/27 08:43:57;;;;;;;7.23;4.50;;;;;;;-1.25;100.00;102188.59;5065587;28;20128;-80
2023/02/27 08:46:25;;;;;;;8.50;4.83;;;;;;;-1.20;100.00;102195.78;5051349;28;20489;-80
2023/02/27 08:48:52;;;;;;;13.27;6.43;;;;;;;-1.06;100.00;102191.31;5043697;28;20044;-80
2023/02/27 08:51:20;;;;;;;11.37;7.13;;;;;;;-0.98;100.00;102204.66;5032369;28;20051;-80
2023/02/27 08:53:47;;;;;;;9.07;5.77;;;;;;;-0.99;100.00;102214.16;5043613;28;20050;-80
2023/02/27 08:56:13;;;;;;;8.97;3.63;;;;;;;-0.96;100.00;102209.13;5053541;28;20203;-80
2023/02/27 08:58:40;;;;;;;7.57;3.10;;;;;;;-1.00;100.00;102206.31;5042131;28;20033;-80
2023/02/27 09:01:06;;;;;;;7.37;3.70;;;;;;;-0.94;100.00;102210.06;5048485;28;20045;-79
2023/02/27 09:03:33;;;;;;;9.00;3.10;;;;;;;-0.85;100.00;102217.44;5079010;28;20159;-79
2023/02/27 09:06:00;;;;;;;6.17;3.70;;;;;;;-0.58;100.00;102204.97;5057272;28;20036;-81
2023/02/27 09:08:26;;;;;;;7.37;3.37;;;;;;;-0.65;100.00;102224.53;5023835;28;20041;-80
2023/02/27 09:10:57;;;;;;;5.53;3.33;;;;;;;-0.60;100.00;102219.56;5041350;28;20045;-80
2023/02/27 09:13:23;;;;;;;6.83;3.03;;;;;;;-0.33;100.00;102214.84;5041714;28;20044;-80
2023/02/27 09:15:50;;;;;;;5.73;3.20;;;;;;;-0.42;100.00;102219.56;5041411;28;20036;-81
2023/02/27 09:18:16;;;;;;;6.17;3.70;;;;;;;-0.34;100.00;102221.75;5029270;28;20049;-80
2023/02/27 09:20:43;;;;;;;7.03;4.60;;;;;;;-0.25;100.00;102221.31;5049565;28;20098;-80
2023/02/27 09:23:10;;;;;;;7.37;4.10;;;;;;;-0.30;100.00;102222.78;5037229;28;20103;-80
2023/02/27 09:25:37;;;;;;;6.37;3.13;;;;;;;-0.17;100.00;102222.56;5054269;28;20049;-81
2023/02/27 09:28:03;;;;;;;5.47;3.90;;;;;;;-0.08;100.00;102229.91;5041019;28;20099;-79
2023/02/27 09:30:30;;;;;;;5.90;3.23;;;;;;;-0.07;100.00;102229.09;5058120;28;20296;-80
2023/02/27 09:32:57;;;;;;;7.07;3.43;;;;;;;-0.06;100.00;102230.88;5040391;28;20094;-79
2023/02/27 09:35:24;;;;;;;8.67;4.00;;;;;;;0.04;100.00;102219.19;5054948;28;20044;-79
2023/02/27 09:37:51;;;;;;;4.57;3.30;;;;;;;0.23;100.00;102232.22;5074092;28;20041;-80
2023/02/27 09:40:29;;;;;;;7.47;3.70;;;;;;;0.13;100.00;102227.44;5056736;28;20044;-78
2023/02/27 09:43:00;;;;;;;4.57;3.10;;;;;;;0.27;100.00;102226.38;5061442;28;20041;-78
2023/02/27 09:45:29;;;;;;;4.37;3.30;;;;;;;0.54;100.00;102237.13;5051405;28;20608;-78
2023/02/27 09:48:29;;;;;;;6.47;3.37;;;;;;;0.66;100.00;102228.97;5025631;28;20090;-79
2023/02/27 09:50:56;;;;;;;5.80;3.07;;;;;;;0.65;100.00;102233.28;5059796;28;20509;-80
2023/02/27 09:53:32;;;;;;;5.90;3.17;;;;;;;0.75;100.00;102238.09;5045441;28;20044;-78
2023/02/27 09:56:40;;;;;;;4.47;2.90;;;;;;;0.69;100.00;102240.44;5025729;28;20064;-79
2023/02/27 09:59:44;;;;;;;6.90;3.10;;;;;;;0.99;100.00;102248.69;5048745;28;20056;-79
2023/02/27 10:02:30;;;;;;;6.07;3.43;;;;;;;0.98;100.00;102246.91;5075375;28;20063;-79
2023/02/27 10:05:18;;;;;;;5.33;2.83;;;;;;;0.91;100.00;102250.06;5063140;28;20040;-79
2023/02/27 10:08:11;;;;;;;4.90;2.80;;;;;;;1.10;100.00;102247.47;5079466;28;20041;-80
2023/02/27 10:10:59;;;;;;;6.70;2.80;;;;;;;1.04;100.00;102247.19;5046404;28;20048;-79
2023/02/27 10:13:41;;;;;;;4.70;2.90;;;;;;;1.22;100.00;102251.41;5080489;28;20028;-80
2023/02/27 10:16:11;;;;;;;4.23;2.37;;;;;;;1.38;100.00;102244.31;5043760;28;20033;-80
2023/02/27 10:18:54;;;;;;;3.67;2.47;;;;;;;1.44;100.00;102245.41;5034123;28;20055;-79
2023/02/27 10:21:29;;;;;;;3.40;2.30;;;;;;;1.54;100.00;102245.84;5063511;28;20036;-79
2023/02/27 10:24:09;;;;;;;3.90;2.30;;;;;;;1.65;100.00;102248.88;5064515;28;20048;-80
2023/02/27 10:26:39;;;;;;;7.07;2.53;;;;;;;1.83;100.00;102244.41;5064409;28;20037;-80
2023/02/27 10:29:26;;;;;;;3.27;2.33;;;;;;;1.93;100.00;102248.28;5058923;28;20052;-78
2023/02/27 10:32:00;;;;;;;6.50;3.10;;;;;;;2.08;100.00;102250.63;5022627;28;20643;-79
2023/02/27 10:34:28;;;;;;;4.97;2.47;;;;;;;2.19;100.00;102246.72;5049097;28;20055;-79
2023/02/27 10:36:57;;;;;;;5.93;2.43;;;;;;;2.26;100.00;102243.50;5079707;28;20051;-80
2023/02/27 10:39:25;;;;;;;6.47;2.30;;;;;;;2.26;100.00;102249.59;5069237;28;20047;-79
2023/02/27 10:41:52;;;;;;;5.43;2.80;;;;;;;2.28;97.33;102244.47;5055704;28;20058;-80
2023/02/27 10:44:18;;;;;;;4.73;2.30;;;;;;;2.59;99.17;102246.50;5072528;28;20107;-79
2023/02/27 10:46:46;;;;;;;4.40;2.57;;;;;;;2.72;93.73;102246.16;5076775;28;20032;-79
2023/02/27 10:49:20;;;;;;;4.73;2.60;;;;;;;2.68;95.98;102239.03;5089027;28;20033;-79
2023/02/27 10:52:11;;;;;;;4.23;2.33;;;;;;;2.97;92.85;102247.94;5055181;28;20037;-79
2023/02/27 10:54:38;;;;;;;3.23;1.73;;;;;;;2.90;94.93;102243.31;5073827;28;20063;-78
2023/02/27 10:57:18;;;;;;;3.57;2.10;;;;;;;3.14;93.89;102250.25;5058624;28;20044;-80
2023/02/27 10:59:57;;;;;;;4.17;1.50;;;;;;;3.34;87.18;102237.03;5061470;28;20063;-79
2023/02/27 11:02:30;;;;;;;1.77;1.20;;;;;;;3.24;82.73;102239.28;5064343;28;20049;-79
2023/02/27 11:04:58;;;;;;;2.50;1.30;;;;;;;3.33;84.77;102248.31;5045550;28;20048;-79
2023/02/27 11:07:34;;;;;;;3.03;1.63;;;;;;;3.50;85.89;102232.34;5052621;28;20532;-79
2023/02/27 11:10:16;;;;;;;1.93;1.10;;;;;;;3.52;82.41;102235.88;5062461;28;20040;-79
2023/02/27 11:13:20;;;;;;;1.53;1.03;;;;;;;3.55;75.54;102241.22;5054843;28;20067;-77
2023/02/27 11:16:04;;;;;;;2.77;1.20;;;;;;;3.51;78.54;102236.72;5061164;28;20048;-78
2023/02/27 11:18:31;;;;;;;1.67;1.10;;;;;;;3.67;78.92;102236.38;5052923;28;20037;-78
2023/02/27 11:21:21;;;;;;;1.20;0.80;;;;;;;3.97;75.24;102238.22;5055953;28;20044;-78
2023/02/27 11:23:54;;;;;;;1.90;1.40;;;;;;;4.35;70.05;102239.41;5059692;28;20036;-77
2023/02/27 11:26:35;;;;;;;2.80;1.23;;;;;;;4.20;65.95;102232.88;5040412;28;20047;-78
2023/02/27 11:29:22;;;;;;;2.40;0.90;;;;;;;4.27;65.17;102235.66;5047212;28;20033;-78
2023/02/27 11:31:54;;;;;;;2.57;1.20;;;;;;;4.02;67.22;102231.41;5036742;28;20041;-78
2023/02/27 11:34:25;;;;;;;1.93;1.20;;;;;;;3.98;69.94;102233.03;5073681;28;20037;-79
2023/02/27 11:36:55;;;;;;;1.10;0.73;;;;;;;3.64;66.98;102233.69;5036402;28;20045;-78
2023/02/27 11:40:00;;;;;;;1.10;1.00;;;;;;;3.79;68.18;102236.81;5056611;28;20041;-78
2023/02/27 11:42:30;;;;;;;1.45;0.75;;;;;;;4.15;63.05;102244.03;4992095;28;20038;-79